Time;durP1;ratioP1;P1;durP2;ratioP2;P2;SDS_P1;SDS_P2;PMS_P1;PMS_P2;Temp;Humidity;BMP_temperature;BMP_pressure;BME280_temperature;BME280_humidity;BME280_pressure;Samples;Min_cycle;Max_cycle;Signal;HPM_P1;HPM_P2
2024/03/06 00:00:52;;;;;;;56.83;30.17;;;5.20;94.80;;;;;;2620853;47;21120;31
2024/03/06 00:03:28;;;;;;;54.70;28.15;;;5.30;93.60;;;;;;2620669;47;20839;31
2024/03/06 00:06:03;;;;;;;55.10;28.27;;;5.20;94.40;;;;;;2602469;54;20862;31
2024/03/06 00:08:39;;;;;;;53.55;28.85;;;5.20;95.20;;;;;;2602581;54;21107;31
2024/03/06 00:11:13;;;;;;;50.65;28.20;;;5.20;95.20;;;;;;2602265;54;20728;31
2024/03/06 00:13:54;;;;;;;55.88;28.23;;;5.20;95.10;;;;;;2602396;54;20022;31
2024/03/06 00:16:29;;;;;;;57.35;30.92;;;5.20;94.80;;;;;;2602326;54;20068;31
2024/03/06 00:19:04;;;;;;;55.33;30.48;;;5.20;95.00;;;;;;2602779;54;20038;31
2024/03/06 00:21:40;;;;;;;57.03;29.93;;;5.20;95.70;;;;;;2603176;54;20728;31
2024/03/06 00:24:15;;;;;;;56.95;30.17;;;5.20;96.00;;;;;;2603348;54;20026;31
2024/03/06 00:26:50;;;;;;;50.63;28.83;;;5.20;96.10;;;;;;2621568;46;21878;31
2024/03/06 00:29:27;;;;;;;54.95;29.00;;;5.10;96.70;;;;;;2603302;54;20030;31
2024/03/06 00:32:06;;;;;;;55.28;30.08;;;5.10;96.70;;;;;;2603224;54;20117;31
2024/03/06 00:34:41;;;;;;;56.43;31.07;;;5.20;97.00;;;;;;2613323;46;20975;31
2024/03/06 00:37:16;;;;;;;58.07;31.17;;;5.20;97.90;;;;;;2603292;54;21178;31
2024/03/06 00:39:52;;;;;;;59.88;30.63;;;5.10;98.10;;;;;;2603264;54;20030;31
2024/03/06 00:42:27;;;;;;;61.03;31.17;;;5.10;98.90;;;;;;2603190;54;20861;31
2024/03/06 00:45:05;;;;;;;57.03;30.27;;;5.10;99.30;;;;;;2603016;54;20109;31
2024/03/06 00:47:40;;;;;;;48.72;27.77;;;5.10;98.70;;;;;;2621608;46;20032;31
2024/03/06 00:50:16;;;;;;;54.10;28.25;;;5.10;98.10;;;;;;2621800;46;20846;31
2024/03/06 00:52:51;;;;;;;52.97;29.38;;;5.10;98.10;;;;;;2621232;46;20026;31
2024/03/06 00:55:26;;;;;;;54.28;29.60;;;5.10;98.50;;;;;;2603164;54;20934;31
2024/03/06 00:58:01;;;;;;;55.15;29.45;;;5.10;99.70;;;;;;2621716;46;20030;31
2024/03/06 01:00:39;;;;;;;53.70;29.20;;;5.10;99.00;;;;;;2621170;46;20022;31
2024/03/06 01:03:13;;;;;;;53.90;29.10;;;5.10;99.40;;;;;;2602880;54;20622;31
2024/03/06 01:05:49;;;;;;;53.95;27.65;;;5.10;99.00;;;;;;2602546;54;21055;31
2024/03/06 01:08:24;;;;;;;55.47;31.17;;;5.00;99.90;;;;;;2603072;54;20847;31
2024/03/06 01:11:00;;;;;;;53.37;28.23;;;5.00;99.90;;;;;;2621358;46;20105;31
2024/03/06 01:13:38;;;;;;;51.00;28.30;;;5.00;99.90;;;;;;2603154;54;20776;31
2024/03/06 01:16:16;;;;;;;50.45;28.17;;;5.00;99.90;;;;;;2621397;46;20102;31
2024/03/06 01:18:52;;;;;;;54.65;29.35;;;5.00;99.90;;;;;;2621395;46;20033;31
2024/03/06 01:21:28;;;;;;;58.35;29.45;;;5.00;99.90;;;;;;2603095;54;20025;31
2024/03/06 01:24:03;;;;;;;49.70;27.15;;;5.00;99.90;;;;;;2603007;54;20032;31
2024/03/06 01:26:37;;;;;;;47.67;25.00;;;4.90;99.90;;;;;;2602957;54;20045;31
2024/03/06 01:29:12;;;;;;;48.75;27.10;;;4.90;99.90;;;;;;2603143;54;20766;31
2024/03/06 01:31:49;;;;;;;51.40;29.65;;;4.90;99.90;;;;;;2602769;54;20109;31
2024/03/06 01:34:25;;;;;;;50.78;28.60;;;5.00;99.90;;;;;;2602867;54;20030;31
2024/03/06 01:37:00;;;;;;;52.20;28.55;;;5.00;99.90;;;;;;2603178;54;20030;31
2024/03/06 01:39:35;;;;;;;54.70;29.20;;;4.90;99.90;;;;;;2602950;54;20926;31
2024/03/06 01:42:11;;;;;;;52.30;29.90;;;4.90;99.90;;;;;;2603008;54;20874;31
2024/03/06 01:44:45;;;;;;;52.15;27.88;;;4.90;99.90;;;;;;2602928;54;20901;31
2024/03/06 01:47:23;;;;;;;53.08;29.67;;;4.80;99.90;;;;;;2603084;54;20116;31
2024/03/06 01:49:58;;;;;;;49.53;26.70;;;4.80;99.90;;;;;;2621416;46;20026;31
2024/03/06 01:52:35;;;;;;;48.92;28.13;;;4.70;99.90;;;;;;2602754;54;20886;31
2024/03/06 01:55:10;;;;;;;53.13;28.98;;;4.80;99.90;;;;;;2621530;46;20046;31
2024/03/06 01:57:44;;;;;;;47.60;26.35;;;4.70;99.90;;;;;;2602886;54;20089;31
2024/03/06 02:00:20;;;;;;;49.90;26.65;;;4.70;99.90;;;;;;2602896;54;20340;31
2024/03/06 02:02:57;;;;;;;;;;;4.70;99.90;;;;;;2603281;54;20034;31
2024/03/06 02:05:33;;;;;;;46.53;26.60;;;4.70;99.90;;;;;;2602824;54;19939;31
2024/03/06 02:08:08;;;;;;;52.42;27.95;;;4.60;99.90;;;;;;2602904;54;20027;31
2024/03/06 02:10:43;;;;;;;56.67;28.47;;;4.60;99.90;;;;;;2602876;54;20880;31
2024/03/06 02:13:18;;;;;;;53.88;28.20;;;4.50;99.90;;;;;;2602771;54;20155;31
2024/03/06 02:15:53;;;;;;;48.85;26.83;;;4.50;99.90;;;;;;2602960;54;20038;31
2024/03/06 02:18:31;;;;;;;50.90;27.30;;;4.40;99.90;;;;;;2603002;54;20082;31
2024/03/06 02:21:08;;;;;;;45.13;24.63;;;4.40;99.90;;;;;;2603080;54;20242;31
2024/03/06 02:23:43;;;;;;;54.17;28.13;;;4.40;99.90;;;;;;2602889;54;20114;31
2024/03/06 02:26:18;;;;;;;50.95;27.00;;;4.30;99.90;;;;;;2621261;46;20973;31
2024/03/06 02:28:53;;;;;;;47.90;26.38;;;4.30;99.90;;;;;;2620863;46;20030;31
2024/03/06 02:31:27;;;;;;;46.85;24.45;;;4.20;99.90;;;;;;2602637;54;20030;31
2024/03/06 02:34:06;;;;;;;56.85;29.75;;;4.20;99.90;;;;;;2621649;46;20897;31
2024/03/06 02:36:43;;;;;;;54.03;27.77;;;4.20;99.90;;;;;;2602647;54;20033;31
2024/03/06 02:39:17;;;;;;;54.95;29.00;;;4.20;99.90;;;;;;2602725;54;20023;31
2024/03/06 02:41:53;;;;;;;52.25;28.00;;;4.10;99.90;;;;;;2620913;46;20776;31
2024/03/06 02:44:30;;;;;;;60.10;30.63;;;4.00;99.90;;;;;;2602618;54;20766;31
2024/03/06 02:47:06;;;;;;;54.58;30.23;;;3.90;99.90;;;;;;2602847;54;20027;31
2024/03/06 02:49:41;;;;;;;55.25;28.73;;;3.90;99.90;;;;;;2620054;46;20064;31
2024/03/06 02:52:18;;;;;;;51.25;28.88;;;3.90;99.90;;;;;;2602441;54;20036;31
2024/03/06 02:54:54;;;;;;;52.15;27.77;;;3.80;99.90;;;;;;2602685;54;20073;31
2024/03/06 02:57:30;;;;;;;58.38;28.17;;;3.80;99.90;;;;;;2602631;54;20033;31
2024/03/06 03:00:09;;;;;;;55.95;29.77;;;3.70;99.90;;;;;;2621382;46;20029;31
2024/03/06 03:02:44;;;;;;;50.15;27.60;;;3.70;99.90;;;;;;2621093;46;20034;31
2024/03/06 03:05:19;;;;;;;54.80;27.73;;;3.60;99.90;;;;;;2602782;54;20929;31
2024/03/06 03:07:56;;;;;;;50.45;27.23;;;3.50;96.00;;;;;;2602673;54;20022;31
2024/03/06 03:10:30;;;;;;;49.53;25.80;;;3.50;99.90;;;;;;2602655;54;21593;31
2024/03/06 03:13:05;;;;;;;45.80;26.70;;;3.40;98.40;;;;;;2602377;54;20235;31
2024/03/06 03:15:40;;;;;;;48.13;27.08;;;3.40;97.60;;;;;;2602534;54;20113;31
2024/03/06 03:18:14;;;;;;;52.78;26.77;;;3.30;99.00;;;;;;2602596;54;20030;31
2024/03/06 03:20:50;;;;;;;53.90;27.70;;;3.30;99.90;;;;;;2602601;54;20854;31
2024/03/06 03:23:27;;;;;;;56.25;27.67;;;3.30;99.90;;;;;;2602656;54;20064;31
2024/03/06 03:26:03;;;;;;;52.00;26.50;;;3.20;99.90;;;;;;2602660;54;20865;31
2024/03/06 03:28:38;;;;;;;;;;;3.20;99.90;;;;;;2602925;54;20085;31
2024/03/06 03:31:13;;;;;;;53.60;26.92;;;3.20;99.90;;;;;;2621179;47;19950;31
2024/03/06 03:33:48;;;;;;;50.35;26.10;;;3.10;99.90;;;;;;2602637;54;20866;31
2024/03/06 03:36:24;;;;;;;51.00;26.48;;;3.10;99.90;;;;;;2602696;54;20854;31
2024/03/06 03:39:03;;;;;;;51.40;27.45;;;3.00;99.90;;;;;;2602470;54;20023;31
2024/03/06 03:41:37;;;;;;;55.95;26.35;;;3.00;99.90;;;;;;2602709;54;20795;31
2024/03/06 03:44:13;;;;;;;55.45;27.42;;;3.00;99.90;;;;;;2602527;54;20034;31
2024/03/06 03:46:50;;;;;;;62.30;27.43;;;3.00;99.90;;;;;;2621043;47;20031;31
2024/03/06 03:49:24;;;;;;;53.72;28.40;;;2.80;99.90;;;;;;2602422;54;20038;31
2024/03/06 03:51:59;;;;;;;55.97;27.38;;;2.90;99.90;;;;;;2602498;54;20026;31
2024/03/06 03:54:37;;;;;;;45.72;26.38;;;2.90;99.90;;;;;;2621304;47;20819;31
2024/03/06 03:57:14;;;;;;;51.50;27.25;;;2.80;99.90;;;;;;2603483;54;20109;31
2024/03/06 03:59:48;;;;;;;48.45;26.25;;;2.80;99.90;;;;;;2603311;54;20842;31
2024/03/06 04:02:22;;;;;;;49.95;25.75;;;2.70;99.90;;;;;;2702000;39;22341;31
2024/03/06 04:04:55;;;;;;;44.78;24.10;;;2.70;97.70;;;;;;2603266;54;20870;31
2024/03/06 04:07:30;;;;;;;46.42;24.38;;;2.60;95.40;;;;;;2603170;54;20882;31
2024/03/06 04:10:10;;;;;;;47.00;25.00;;;2.50;94.50;;;;;;2621722;46;20030;31
2024/03/06 04:12:45;;;;;;;42.95;23.98;;;2.40;93.10;;;;;;2603397;54;20933;31
2024/03/06 04:15:20;;;;;;;43.65;23.98;;;2.30;93.10;;;;;;2603120;54;20507;31
2024/03/06 04:17:55;;;;;;;45.27;22.83;;;2.30;92.70;;;;;;2603526;54;20045;31
2024/03/06 04:20:31;;;;;;;45.20;24.05;;;2.20;92.70;;;;;;2603383;54;20027;31
2024/03/06 04:23:06;;;;;;;47.47;23.50;;;2.20;92.50;;;;;;2603418;54;20072;31
2024/03/06 04:28:14;;;;;;;43.05;23.75;;;2.10;92.70;;;;;;2603471;54;20022;31
2024/03/06 04:30:48;;;;;;;45.57;25.27;;;2.10;92.70;;;;;;2772998;31;21532;31
2024/03/06 04:33:23;;;;;;;42.63;23.33;;;2.00;92.80;;;;;;2621496;46;20059;31
2024/03/06 04:35:59;;;;;;;55.78;24.83;;;2.00;91.90;;;;;;2603245;54;20085;31
2024/03/06 04:38:34;;;;;;;59.63;24.63;;;1.90;92.60;;;;;;2603155;54;20027;31
2024/03/06 04:41:10;;;;;;;44.55;23.48;;;1.80;94.00;;;;;;2603305;54;20030;31
2024/03/06 04:43:47;;;;;;;42.67;22.33;;;1.80;94.50;;;;;;2603280;54;20037;31
2024/03/06 04:46:22;;;;;;;39.70;22.15;;;1.80;94.10;;;;;;2602363;54;21433;31
2024/03/06 04:48:57;;;;;;;42.13;22.60;;;1.70;93.60;;;;;;2603278;54;20030;31
2024/03/06 04:51:32;;;;;;;48.55;23.35;;;1.70;94.00;;;;;;2603331;54;20033;31
2024/03/06 04:54:06;;;;;;;38.70;19.60;;;1.70;93.50;;;;;;2603151;54;20022;31
2024/03/06 04:56:41;;;;;;;51.35;24.15;;;1.60;94.70;;;;;;2701696;39;21767;31
2024/03/06 04:59:19;;;;;;;52.07;26.10;;;1.60;94.20;;;;;;2603021;54;20034;31
2024/03/06 05:01:55;;;;;;;49.90;23.70;;;1.60;94.30;;;;;;2603063;54;20150;31
2024/03/06 05:04:30;;;;;;;45.63;23.77;;;1.60;94.40;;;;;;2603147;54;20056;31
2024/03/06 05:07:17;;;;;;;43.23;23.10;;;1.50;94.00;;;;;;2603273;54;20034;31
2024/03/06 05:10:07;;;;;;;49.00;23.35;;;1.50;94.70;;;;;;2621428;46;20081;31
2024/03/06 05:12:56;;;;;;;46.33;23.17;;;1.40;94.70;;;;;;2602917;54;20054;31
2024/03/06 05:15:46;;;;;;;48.78;23.70;;;1.40;94.20;;;;;;2603029;54;21184;31
2024/03/06 05:18:35;;;;;;;46.67;24.05;;;1.40;95.10;;;;;;2603024;54;20064;31
2024/03/06 05:21:24;;;;;;;44.90;22.70;;;1.30;95.80;;;;;;2603163;54;20909;31
2024/03/06 05:24:12;;;;;;;46.95;24.75;;;1.30;96.90;;;;;;2603085;54;20895;31
2024/03/06 05:27:00;;;;;;;46.45;22.85;;;1.30;96.60;;;;;;2603215;54;20076;31
2024/03/06 05:29:48;;;;;;;44.43;23.77;;;1.30;96.40;;;;;;2621291;46;20944;31
2024/03/06 05:32:38;;;;;;;47.95;23.00;;;1.30;96.60;;;;;;2621450;46;22683;31
2024/03/06 05:35:26;;;;;;;47.30;23.67;;;1.30;97.00;;;;;;2603194;54;20031;31
2024/03/06 05:38:14;;;;;;;46.33;22.95;;;1.20;98.50;;;;;;2603084;54;20108;31
2024/03/06 05:41:02;;;;;;;46.70;25.05;;;1.30;99.70;;;;;;2602967;54;20727;31
2024/03/06 05:43:51;;;;;;;46.22;23.02;;;1.30;99.90;;;;;;2603298;54;20957;31
2024/03/06 05:46:38;;;;;;;45.85;24.05;;;1.30;99.90;;;;;;2603092;54;20921;31
2024/03/06 05:49:29;;;;;;;48.80;25.20;;;1.30;99.90;;;;;;2603060;54;20034;31
2024/03/06 05:52:16;;;;;;;49.00;23.60;;;1.40;99.90;;;;;;2603213;54;22378;31
2024/03/06 05:55:06;;;;;;;45.03;22.90;;;1.30;99.90;;;;;;2621452;46;20031;31
2024/03/06 05:57:51;;;;;;;44.80;23.95;;;1.40;99.90;;;;;;2621297;46;22407;31
2024/03/06 06:00:41;;;;;;;44.75;23.70;;;1.40;99.90;;;;;;2602929;54;20026;31
2024/03/06 06:03:17;;;;;;;43.07;23.83;;;1.50;99.90;;;;;;2602751;54;20030;31
2024/03/06 06:05:54;;;;;;;42.57;23.13;;;1.70;99.90;;;;;;2602783;54;20172;31
2024/03/06 06:08:30;;;;;;;52.80;25.80;;;1.80;99.90;;;;;;2602035;54;20962;31
2024/03/06 06:11:08;;;;;;;51.95;24.85;;;2.00;99.90;;;;;;2602877;54;20793;31
2024/03/06 06:13:43;;;;;;;48.05;24.73;;;2.30;99.90;;;;;;2602836;54;20933;31
2024/03/06 06:16:20;;;;;;;46.15;24.20;;;2.40;99.90;;;;;;2602981;54;20033;31
2024/03/06 06:18:59;;;;;;;49.08;23.77;;;2.70;98.20;;;;;;2602155;54;20056;31
2024/03/06 06:21:43;;;;;;;47.08;24.75;;;3.00;97.70;;;;;;2621410;46;20737;31
2024/03/06 06:24:22;;;;;;;43.42;23.45;;;3.30;94.80;;;;;;2602808;54;20779;31
2024/03/06 06:27:00;;;;;;;41.60;23.55;;;3.60;93.00;;;;;;2621450;46;20029;31
2024/03/06 06:29:33;;;;;;;;;;;3.80;89.30;;;;;;2602898;54;20031;31
2024/03/06 06:32:08;;;;;;;55.53;26.33;;;4.00;90.20;;;;;;2602660;54;20900;31
2024/03/06 06:34:50;;;;;;;50.05;26.65;;;4.20;88.30;;;;;;2602634;54;20894;31
2024/03/06 06:37:30;;;;;;;57.40;25.70;;;4.50;84.20;;;;;;2621003;46;22345;31
2024/03/06 06:40:06;;;;;;;50.45;24.90;;;4.80;79.10;;;;;;2602911;54;22443;31
2024/03/06 06:42:49;;;;;;;49.45;25.40;;;5.10;71.20;;;;;;2719168;39;20483;31
2024/03/06 06:45:21;;;;;;;45.92;25.10;;;5.40;65.10;;;;;;2951090;46;20003;-92
2024/03/06 06:47:56;;;;;;;40.50;23.90;;;5.70;66.00;;;;;;2616685;46;20892;31
2024/03/06 06:50:34;;;;;;;37.38;22.33;;;5.90;44.10;;;;;;2621056;46;20049;31
2024/03/06 06:53:12;;;;;;;39.63;23.03;;;6.10;35.80;;;;;;2602628;54;20034;31
2024/03/06 06:55:47;;;;;;;44.30;22.48;;;6.40;26.50;;;;;;2602533;54;20056;31
2024/03/06 06:58:26;;;;;;;37.67;23.23;;;6.60;22.30;;;;;;2602542;54;20035;31
2024/03/06 07:03:33;;;;;;;42.35;24.45;;;7.20;2.50;;;;;;2632300;54;20104;-93
2024/03/06 07:08:42;;;;;;;34.60;22.23;;;7.80;1.00;;;;;;2602574;54;20069;31
2024/03/06 07:11:21;;;;;;;41.17;22.92;;;8.20;1.00;;;;;;2602449;54;20246;31
2024/03/06 07:13:57;;;;;;;37.88;22.30;;;8.20;1.00;;;;;;2620894;46;20030;31
2024/03/06 07:16:34;;;;;;;37.30;24.02;;;8.30;1.00;;;;;;2602398;54;20034;31
2024/03/06 07:19:09;;;;;;;40.92;25.60;;;8.40;1.00;;;;;;2602567;54;20772;31
2024/03/06 07:21:45;;;;;;;36.28;22.40;;;8.60;1.00;;;;;;2602642;54;20026;31
2024/03/06 07:24:24;;;;;;;41.58;22.83;;;8.80;1.00;;;;;;2602615;54;20908;31
2024/03/06 07:27:01;;;;;;;37.50;24.33;;;9.00;1.00;;;;;;2602120;54;20099;31
2024/03/06 07:29:47;;;;;;;38.65;22.13;;;9.00;1.00;;;;;;2602272;54;20023;31
2024/03/06 07:32:22;;;;;;;42.28;23.77;;;9.40;1.00;;;;;;2602080;54;20136;31
2024/03/06 07:35:12;;;;;;;;;;;;;;;;;;;;;
2024/03/06 07:40:58;;;;;;;46.13;26.02;;;10.00;1.00;;;;;;2601890;54;20782;31
2024/03/06 07:43:58;;;;;;;41.08;24.42;;;10.30;99.90;;;;;;2602370;54;20033;31
2024/03/06 07:46:49;;;;;;;42.58;26.42;;;10.30;99.90;;;;;;2602308;54;20022;31
2024/03/06 07:49:30;;;;;;;45.60;25.95;;;10.40;99.90;;;;;;2601829;54;20867;31
2024/03/06 08:10:14;;;;;;;36.20;23.70;;;11.90;99.90;;;;;;2601425;54;21467;31
2024/03/06 08:34:31;;;;;;;34.40;22.07;;;13.10;99.90;;;;;;2601700;54;20760;31
2024/03/06 08:37:24;;;;;;;27.98;18.67;;;13.30;99.90;;;;;;2620661;47;21108;31
2024/03/06 08:40:20;;;;;;;27.60;19.60;;;13.60;99.90;;;;;;2602561;54;20027;31
2024/03/06 08:58:56;;;;;;;25.10;16.27;;;14.20;99.90;;;;;;2700852;39;21590;31
2024/03/06 09:10:59;;;;;;;18.00;12.60;;;14.10;99.90;;;;;;2603292;54;20719;31
2024/03/06 09:20:03;;;;;;;18.40;12.98;;;13.50;1.00;;;;;;2602440;54;20030;31
2024/03/06 09:26:01;;;;;;;17.27;11.30;;;13.90;1.00;;;;;;2601940;54;20027;31
2024/03/06 09:29:08;;;;;;;18.15;10.90;;;14.30;1.00;;;;;;2701812;39;21359;31
2024/03/06 09:31:52;;;;;;;16.13;10.23;;;14.10;99.90;;;;;;2603269;54;20029;31
2024/03/06 09:40:35;;;;;;;18.70;11.80;;;14.50;99.90;;;;;;2621728;46;20032;31
2024/03/06 09:53:10;;;;;;;16.67;10.65;;;14.70;47.50;;;;;;2621431;46;20022;31
2024/03/06 10:15:31;;;;;;;14.30;9.30;;;14.50;99.90;;;;;;2603054;54;20238;31
2024/03/06 10:28:17;;;;;;;17.52;11.70;;;12.70;99.90;;;;;;2603059;54;20084;31
2024/03/06 10:31:09;;;;;;;20.47;13.87;;;12.40;1.00;;;;;;2621115;46;20027;31
2024/03/06 10:33:56;;;;;;;23.92;15.63;;;12.40;99.90;;;;;;2620884;46;20049;31
2024/03/06 10:42:42;;;;;;;22.25;14.80;;;11.80;1.00;;;;;;2602903;54;21019;31
2024/03/06 10:54:27;;;;;;;23.77;15.60;;;10.90;17.90;;;;;;2602664;54;20062;31
2024/03/06 10:57:29;;;;;;;27.90;17.90;;;10.70;99.90;;;;;;2602206;54;20408;31
2024/03/06 11:02:45;;;;;;;27.75;18.80;;;10.20;77.40;;;;;;2613478;46;20030;31
2024/03/06 11:05:33;;;;;;;31.52;18.40;;;9.90;16.80;;;;;;2601863;54;20085;31
2024/03/06 11:08:28;;;;;;;30.85;18.05;;;9.80;99.90;;;;;;2620715;46;20030;31
2024/03/06 11:11:22;;;;;;;31.00;18.50;;;9.70;1.00;;;;;;2602607;54;20948;31
2024/03/06 11:14:08;;;;;;;31.02;18.33;;;9.60;47.30;;;;;;2602532;54;20101;31
2024/03/06 11:17:23;;;;;;;30.05;16.20;;;9.60;99.90;;;;;;2620876;46;20046;31
2024/03/06 11:20:32;;;;;;;27.13;16.25;;;9.60;99.90;;;;;;2602588;54;20026;31
2024/03/06 11:23:12;;;;;;;29.80;18.40;;;9.50;99.90;;;;;;2700845;39;21567;31
2024/03/06 11:29:26;;;;;;;27.90;17.45;;;9.40;1.00;;;;;;2602585;54;20874;31
2024/03/06 11:35:14;;;;;;;25.85;15.80;;;9.30;1.00;;;;;;2620349;47;20167;31
2024/03/06 11:38:10;;;;;;;26.80;17.58;;;9.20;1.00;;;;;;2602199;54;20050;31
2024/03/06 11:40:55;;;;;;;28.77;17.88;;;9.20;1.00;;;;;;2609229;47;20038;31
2024/03/06 11:50:19;;;;;;;25.30;16.25;;;9.10;99.90;;;;;;2620369;47;20056;31
2024/03/06 11:53:18;;;;;;;24.50;16.60;;;9.10;99.90;;;;;;2602079;54;20794;31
2024/03/06 11:59:46;;;;;;;27.30;16.37;;;9.30;65.50;;;;;;2602419;54;20241;31
2024/03/06 12:08:28;;;;;;;26.80;15.95;;;9.60;1.00;;;;;;2602328;54;20149;31
2024/03/06 12:14:09;;;;;;;24.63;15.73;;;9.60;99.90;;;;;;2620277;47;20023;31
2024/03/06 12:17:03;;;;;;;23.83;14.75;;;9.40;99.90;;;;;;2603148;54;20092;31
2024/03/06 12:19:48;;;;;;;22.60;14.40;;;9.40;1.00;;;;;;2603101;54;20030;31
2024/03/06 12:22:49;;;;;;;22.63;13.60;;;9.30;1.00;;;;;;2621570;46;20055;31
2024/03/06 12:28:57;;;;;;;22.55;14.05;;;9.10;1.00;;;;;;2602839;54;20030;31
2024/03/06 12:34:41;;;;;;;23.50;13.75;;;8.90;99.90;;;;;;2603179;54;20837;31
2024/03/06 12:37:39;;;;;;;23.52;13.93;;;8.90;99.90;;;;;;2602974;54;21504;31
2024/03/06 12:44:20;;;;;;;23.10;14.82;;;8.80;1.00;;;;;;2602951;54;20031;31
2024/03/06 12:50:10;;;;;;;20.65;13.40;;;8.70;33.60;;;;;;2621789;46;20900;31
2024/03/06 12:53:04;;;;;;;25.80;14.70;;;8.60;63.40;;;;;;2621588;46;20884;31
2024/03/06 12:56:01;;;;;;;25.93;15.13;;;8.50;33.00;;;;;;2602897;54;20517;31
2024/03/06 12:58:45;;;;;;;23.35;14.48;;;8.50;99.90;;;;;;2602706;54;21177;31
2024/03/06 13:01:47;;;;;;;27.60;16.90;;;8.40;99.90;;;;;;2603000;54;20781;31
2024/03/06 13:04:30;;;;;;;26.95;16.60;;;8.30;99.90;;;;;;2603209;54;20038;31
2024/03/06 13:07:11;;;;;;;27.50;16.30;;;8.20;99.90;;;;;;2602224;54;20825;31
2024/03/06 13:10:04;;;;;;;28.80;16.30;;;8.20;99.90;;;;;;2602941;54;20045;31
2024/03/06 13:12:57;;;;;;;31.93;16.80;;;8.10;1.00;;;;;;2602999;54;20048;31
2024/03/06 13:15:36;;;;;;;27.17;16.40;;;8.00;1.00;;;;;;2602564;54;20026;31
2024/03/06 13:18:38;;;;;;;28.13;16.65;;;8.00;1.00;;;;;;2602801;54;20849;31
2024/03/06 13:24:09;;;;;;;35.08;19.60;;;7.80;1.00;;;;;;2602857;54;20022;31
2024/03/06 13:27:03;;;;;;;34.90;20.40;;;7.80;1.00;;;;;;2602880;54;20921;31
2024/03/06 13:30:32;;;;;;;29.48;17.60;;;7.80;1.00;;;;;;2602694;54;20895;31
2024/03/06 13:33:32;;;;;;;28.95;16.90;;;7.70;1.00;;;;;;2602920;54;20023;31
2024/03/06 13:42:29;;;;;;;35.25;19.25;;;7.70;1.00;;;;;;2602742;54;20034;31
2024/03/06 13:48:19;;;;;;;36.00;19.75;;;7.70;1.00;;;;;;2621446;46;20333;31
2024/03/06 13:54:02;;;;;;;34.17;18.60;;;7.60;1.00;;;;;;2602771;54;20035;31
2024/03/06 13:57:01;;;;;;;33.13;20.60;;;7.60;1.00;;;;;;2602507;54;20053;31
2024/03/06 13:59:56;;;;;;;30.67;18.55;;;7.50;1.00;;;;;;2602698;54;20057;31
2024/03/06 14:02:57;;;;;;;30.02;18.63;;;7.50;1.00;;;;;;2603058;54;20033;31
2024/03/06 14:08:58;;;;;;;29.43;17.33;;;7.40;1.00;;;;;;2602884;54;20022;31
2024/03/06 14:17:57;;;;;;;30.88;16.65;;;7.30;1.00;;;;;;2621118;46;19934;31
2024/03/06 14:21:03;;;;;;;29.60;16.60;;;7.30;1.00;;;;;;2606072;46;20036;31
2024/03/06 14:27:06;;;;;;;26.55;15.75;;;7.30;1.00;;;;;;2621267;46;20785;31
2024/03/06 14:29:55;;;;;;;27.27;15.57;;;7.20;1.00;;;;;;2621276;46;20096;31
2024/03/06 14:32:41;;;;;;;24.25;13.30;;;7.10;1.00;;;;;;2607029;46;20027;31
2024/03/06 14:35:31;;;;;;;27.25;15.05;;;7.10;1.00;;;;;;2621175;46;20037;31
2024/03/06 14:38:15;;;;;;;28.75;14.98;;;7.10;1.00;;;;;;2720805;39;21465;31
2024/03/06 14:41:05;;;;;;;27.25;15.48;;;7.00;1.00;;;;;;2621069;46;20069;31
2024/03/06 14:44:01;;;;;;;22.60;13.18;;;7.00;12.10;;;;;;2602402;54;20030;31
2024/03/06 14:52:17;;;;;;;25.53;13.23;;;6.70;65.30;;;;;;2602732;54;20030;31
2024/03/06 14:54:58;;;;;;;22.85;12.45;;;6.70;74.20;;;;;;2602329;54;20022;31
2024/03/06 14:58:04;;;;;;;26.15;15.07;;;6.60;74.30;;;;;;2701217;39;21555;31
2024/03/06 15:03:19;;;;;;;25.80;14.68;;;6.60;71.30;;;;;;2602643;54;21270;31
2024/03/06 15:05:57;;;;;;;24.85;14.00;;;6.60;77.50;;;;;;2602487;54;20744;31
2024/03/06 15:08:34;;;;;;;25.10;13.95;;;6.50;80.80;;;;;;2602678;54;20030;31
2024/03/06 15:11:09;;;;;;;26.63;15.10;;;6.40;84.40;;;;;;2602602;54;20049;31
2024/03/06 15:13:45;;;;;;;27.20;15.60;;;6.30;91.90;;;;;;2602645;54;20365;31
2024/03/06 15:16:21;;;;;;;28.85;15.60;;;6.30;93.00;;;;;;2602436;54;20062;31
2024/03/06 15:18:57;;;;;;;29.23;14.82;;;6.40;92.70;;;;;;2602447;54;20030;31
2024/03/06 15:21:38;;;;;;;23.60;13.95;;;6.30;91.60;;;;;;2621062;46;20081;31
2024/03/06 15:24:13;;;;;;;24.70;15.02;;;6.30;91.70;;;;;;2621281;46;20845;31
2024/03/06 15:26:49;;;;;;;28.50;14.52;;;6.20;92.20;;;;;;2602558;54;20941;31
2024/03/06 15:29:25;;;;;;;33.57;14.97;;;6.20;93.10;;;;;;2602405;54;20081;31
2024/03/06 15:32:00;;;;;;;29.43;16.20;;;6.20;94.30;;;;;;2602514;54;20037;31
2024/03/06 15:34:38;;;;;;;26.83;15.30;;;6.20;96.60;;;;;;2602368;54;20026;31
2024/03/06 15:37:16;;;;;;;28.10;15.60;;;6.10;99.90;;;;;;2620604;47;20050;31
2024/03/06 15:39:52;;;;;;;29.08;16.17;;;6.10;99.90;;;;;;2602505;54;20037;31
2024/03/06 15:42:25;;;;;;;29.05;16.50;;;6.10;99.90;;;;;;2620901;47;21167;31
2024/03/06 15:45:01;;;;;;;34.90;18.13;;;6.10;99.90;;;;;;2602465;54;20082;31
2024/03/06 15:47:38;;;;;;;40.53;19.30;;;6.10;99.90;;;;;;2602349;54;21100;31
2024/03/06 15:50:15;;;;;;;32.22;18.38;;;6.00;99.90;;;;;;2603023;54;20882;31
2024/03/06 15:52:58;;;;;;;38.22;20.08;;;6.00;99.90;;;;;;2603468;54;20880;31
2024/03/06 15:55:41;;;;;;;35.03;19.15;;;6.00;99.90;;;;;;2603219;54;20772;31
2024/03/06 15:58:23;;;;;;;36.38;20.77;;;6.00;99.90;;;;;;2603193;54;20022;31
2024/03/06 16:10:03;;;;;;;37.97;20.60;;;5.80;99.90;;;;;;2603287;54;20035;31
2024/03/06 16:12:45;;;;;;;37.05;18.58;;;5.80;99.90;;;;;;2603322;54;21775;31
2024/03/06 16:15:22;;;;;;;31.50;17.30;;;5.90;99.90;;;;;;2621163;46;20642;31
2024/03/06 16:17:58;;;;;;;31.25;17.92;;;5.80;99.90;;;;;;2602287;54;20093;31
2024/03/06 16:20:33;;;;;;;36.90;18.80;;;5.80;99.90;;;;;;2603579;54;20019;31
2024/03/06 16:23:08;;;;;;;35.47;18.38;;;5.80;99.90;;;;;;2603253;54;20930;31
2024/03/06 16:25:45;;;;;;;33.92;18.42;;;5.80;99.90;;;;;;2603372;54;21543;31
2024/03/06 16:28:21;;;;;;;39.13;19.02;;;5.80;99.90;;;;;;2603313;54;20052;31
2024/03/06 16:30:56;;;;;;;37.22;18.90;;;5.80;99.90;;;;;;2603144;54;20928;31
2024/03/06 16:33:31;;;;;;;43.60;21.15;;;5.80;99.90;;;;;;2603022;54;20078;31
2024/03/06 16:36:04;;;;;;;40.25;20.85;;;5.70;99.90;;;;;;2621447;46;21112;31
2024/03/06 16:38:43;;;;;;;37.90;20.10;;;5.70;99.90;;;;;;2621467;46;20109;31
2024/03/06 16:41:23;;;;;;;41.10;20.90;;;5.70;99.90;;;;;;2603145;54;20030;31
2024/03/06 16:43:57;;;;;;;36.00;21.42;;;5.80;99.90;;;;;;2603293;54;21562;31
2024/03/06 16:46:34;;;;;;;38.40;20.95;;;5.80;99.90;;;;;;2603037;54;20861;31
2024/03/06 16:49:12;;;;;;;39.15;21.60;;;5.80;99.90;;;;;;2621499;46;20026;31
2024/03/06 16:51:47;;;;;;;34.60;19.75;;;5.80;99.90;;;;;;2621411;46;20788;31
2024/03/06 16:54:23;;;;;;;38.45;21.27;;;5.80;99.90;;;;;;2603056;54;20022;31
2024/03/06 16:56:58;;;;;;;38.80;20.65;;;5.70;99.90;;;;;;2621431;46;21281;31
2024/03/06 16:59:34;;;;;;;36.85;19.75;;;5.70;99.90;;;;;;2603201;54;20854;31
2024/03/06 17:02:09;;;;;;;34.70;19.27;;;5.70;99.90;;;;;;2602754;54;20141;31
2024/03/06 17:04:44;;;;;;;33.90;19.20;;;5.70;99.90;;;;;;2602950;54;21200;31
2024/03/06 17:07:19;;;;;;;40.40;21.55;;;5.70;99.90;;;;;;2621764;46;20026;31
2024/03/06 17:09:54;;;;;;;41.17;22.77;;;5.70;99.90;;;;;;2701459;39;20414;31
2024/03/06 17:12:31;;;;;;;38.60;21.38;;;5.70;99.90;;;;;;2603156;54;20241;31
2024/03/06 17:15:07;;;;;;;36.50;20.55;;;5.70;99.90;;;;;;2603126;54;21270;31
2024/03/06 17:17:42;;;;;;;35.30;21.05;;;5.70;99.90;;;;;;2701599;39;21424;31
2024/03/06 17:20:17;;;;;;;35.27;19.20;;;5.70;99.90;;;;;;2602995;54;20038;31
2024/03/06 17:22:52;;;;;;;36.33;20.60;;;5.70;99.90;;;;;;2603034;54;20804;31
2024/03/06 17:25:27;;;;;;;42.50;21.10;;;5.70;99.90;;;;;;2621787;46;20026;31
2024/03/06 17:28:05;;;;;;;39.93;20.60;;;5.80;99.90;;;;;;2603131;54;21046;31
2024/03/06 17:30:41;;;;;;;35.75;20.17;;;5.70;99.90;;;;;;2602939;54;20109;31
2024/03/06 17:33:16;;;;;;;34.45;19.20;;;5.70;99.90;;;;;;2602940;54;20044;31
2024/03/06 17:35:52;;;;;;;37.88;21.90;;;5.70;99.90;;;;;;2602911;54;20031;31
2024/03/06 17:38:29;;;;;;;40.25;23.80;;;5.80;99.90;;;;;;2621646;46;20030;31
2024/03/06 17:41:04;;;;;;;39.13;21.25;;;5.70;99.90;;;;;;2701523;39;20419;31
2024/03/06 17:43:41;;;;;;;38.97;20.42;;;5.80;99.90;;;;;;2602886;54;20027;31
2024/03/06 17:46:16;;;;;;;34.85;19.20;;;5.80;99.90;;;;;;2621464;46;20034;31
2024/03/06 17:48:53;;;;;;;30.25;18.45;;;5.80;99.90;;;;;;2602869;54;20053;31
2024/03/06 17:51:27;;;;;;;34.42;19.92;;;5.80;99.90;;;;;;2621518;46;20034;31